Terminal Aerodrome Forecast
Issued by NWS

Home | Current Version | Previous Version | Text Only | Print | Product List | Glossary On
Versions: 1 2 3 4 5 6 7 8 9 10 11 12 13
821
FTUS44 KSJT 231738
TAFBBD
TAF
KBBD 231738Z 2318/2418 19010KT P6SM SKC
     FM232000 23011KT P6SM SKC
     FM240100 18007KT P6SM FEW250
     FM241600 22013G20KT P6SM SCT250
      AMD NOT SKED=

USA.gov is the U.S. government's official web portal to all federal, state and local government web resources and services.